createdAt,value
2022-09-15T00:00:00.599Z,0
2022-09-15T00:05:00.180Z,0
2022-09-15T00:10:00.137Z,0
2022-09-15T00:15:00.432Z,0
2022-09-15T00:20:00.030Z,0
2022-09-15T00:25:00.124Z,0
2022-09-15T00:30:00.202Z,0
2022-09-15T00:35:00.049Z,0
2022-09-15T00:40:00.108Z,0
2022-09-15T00:45:00.001Z,0
2022-09-15T00:50:00.052Z,0
2022-09-15T00:55:02.142Z,0
2022-09-15T01:00:01.860Z,0
2022-09-15T01:04:59.985Z,0
2022-09-15T01:10:00.276Z,0
2022-09-15T01:15:00.342Z,0
2022-09-15T01:20:00.285Z,0
2022-09-15T01:25:06.659Z,0
2022-09-15T01:29:59.973Z,0
2022-09-15T01:35:00.273Z,0
2022-09-15T01:39:59.990Z,0
2022-09-15T01:45:00.184Z,0
2022-09-15T01:50:00.271Z,0
2022-09-15T01:55:00.152Z,0
2022-09-15T02:00:00.524Z,0
2022-09-15T02:05:02.431Z,0
2022-09-15T02:10:00.217Z,0
2022-09-15T02:15:00.292Z,0
2022-09-15T02:19:59.944Z,0
2022-09-15T02:25:00.408Z,0
2022-09-15T02:30:00.190Z,0
2022-09-15T02:35:00.082Z,0
2022-09-15T02:40:01.241Z,0
2022-09-15T02:44:59.979Z,0
2022-09-15T02:50:00.272Z,0
2022-09-15T02:55:00.143Z,0
2022-09-15T03:00:00.287Z,0
2022-09-15T03:05:00.073Z,0
2022-09-15T03:10:00.288Z,0
2022-09-15T03:15:00.256Z,0
2022-09-15T03:20:00.461Z,0
2022-09-15T03:25:00.805Z,0
2022-09-15T03:29:59.881Z,0
2022-09-15T03:35:00.118Z,0
2022-09-15T03:39:59.958Z,0
2022-09-15T03:45:00.077Z,0
2022-09-15T03:49:59.979Z,0
2022-09-15T03:55:00.093Z,0
2022-09-15T04:00:00.253Z,0
2022-09-15T04:05:00.170Z,0
2022-09-15T04:10:00.006Z,0
2022-09-15T04:14:59.984Z,0
2022-09-15T04:19:59.795Z,0
2022-09-15T04:24:59.839Z,0
2022-09-15T04:30:00.054Z,0
2022-09-15T04:34:59.940Z,0
2022-09-15T04:40:00.332Z,0
2022-09-15T04:44:59.930Z,0
2022-09-15T04:49:59.813Z,0
2022-09-15T04:54:59.883Z,0
2022-09-15T05:00:00.016Z,0
2022-09-15T05:04:59.848Z,0
2022-09-15T05:10:00.049Z,0
2022-09-15T05:15:00.121Z,0.5
2022-09-15T05:19:59.975Z,0.7
2022-09-15T05:24:59.804Z,1.3
2022-09-15T05:30:23.520Z,1.7
2022-09-15T05:34:59.792Z,2.9
2022-09-15T05:39:59.946Z,4.2
2022-09-15T05:44:59.864Z,4.5
2022-09-15T05:49:59.982Z,5.2
2022-09-15T05:54:59.987Z,6.6
2022-09-15T05:59:59.768Z,13.2
2022-09-15T06:04:59.891Z,19.8
2022-09-15T06:10:00.087Z,26.5
2022-09-15T06:14:59.960Z,30.4
2022-09-15T06:20:00.024Z,31.6
2022-09-15T06:24:59.750Z,26.4
2022-09-15T06:29:59.925Z,26.3
2022-09-15T06:34:59.730Z,30.3
2022-09-15T06:40:00.533Z,37.6
2022-09-15T06:44:59.775Z,40.6
2022-09-15T06:49:59.993Z,45.7
2022-09-15T06:54:59.994Z,52.3
2022-09-15T06:59:59.940Z,59.6
2022-09-15T07:05:00.044Z,64.7
2022-09-15T07:10:00.028Z,68.8
2022-09-15T07:15:00.067Z,68.6
2022-09-15T07:20:00.061Z,50
2022-09-15T07:24:59.773Z,41.3
2022-09-15T07:29:59.798Z,50.9
2022-09-15T07:34:59.930Z,67.3
2022-09-15T07:39:59.963Z,81.7
2022-09-15T07:44:59.786Z,85.5
2022-09-15T07:49:59.915Z,88.7
2022-09-15T07:54:59.884Z,92.4
2022-09-15T08:00:00.027Z,95.6
2022-09-15T08:04:59.954Z,96.7
2022-09-15T08:10:00.075Z,97.9
2022-09-15T08:14:59.931Z,105.8
2022-09-15T08:19:59.850Z,113.5
2022-09-15T08:24:59.952Z,101.7
2022-09-15T08:29:59.905Z,77.2
2022-09-15T08:34:59.892Z,62.6
2022-09-15T08:40:00.365Z,78.8
2022-09-15T08:45:06.219Z,99.3
2022-09-15T08:49:59.900Z,114.6
2022-09-15T08:54:59.891Z,129.4
2022-09-15T08:59:59.651Z,138.5
2022-09-15T09:05:03.927Z,141.9
2022-09-15T09:09:59.951Z,156.7
2022-09-15T09:15:06.096Z,159.2
2022-09-15T09:19:59.763Z,166
2022-09-15T09:24:59.934Z,178.5
2022-09-15T09:30:03.153Z,176.8
2022-09-15T09:34:59.667Z,185.4
2022-09-15T09:39:59.845Z,172.7
2022-09-15T09:44:59.655Z,193.2
2022-09-15T09:49:59.681Z,193.4
2022-09-15T09:55:00.338Z,200.3
2022-09-15T09:59:59.625Z,208.7
2022-09-15T10:04:59.826Z,212.8
2022-09-15T10:09:59.791Z,220.4
2022-09-15T10:14:59.695Z,217.3
2022-09-15T10:19:59.975Z,219.5
2022-09-15T10:24:59.820Z,238.9
2022-09-15T10:29:59.631Z,234.9
2022-09-15T10:34:59.744Z,230.4
2022-09-15T10:40:01.998Z,226.5
2022-09-15T10:45:00.249Z,233.3
2022-09-15T10:50:05.078Z,238.6
2022-09-15T10:54:59.819Z,249.3
2022-09-15T10:59:59.722Z,234.1
2022-09-15T11:04:59.849Z,215.7
2022-09-15T11:09:59.793Z,182.1
2022-09-15T11:15:06.575Z,216.2
2022-09-15T11:19:59.571Z,247.5
2022-09-15T11:24:59.588Z,293.7
2022-09-15T11:29:59.534Z,335.6
2022-09-15T11:34:59.608Z,198.4
2022-09-15T11:40:03.058Z,177.3
2022-09-15T11:44:59.644Z,325.3
2022-09-15T11:49:59.522Z,446.2
2022-09-15T11:54:59.748Z,542.8
2022-09-15T11:59:59.597Z,599.9
2022-09-15T12:05:04.296Z,672.4
2022-09-15T12:09:59.512Z,685.6
2022-09-15T12:14:59.515Z,810.6
2022-09-15T12:19:59.774Z,888.1
2022-09-15T12:25:01.123Z,682.2
2022-09-15T12:29:59.697Z,296.1
2022-09-15T12:34:59.599Z,170.8
2022-09-15T12:39:59.704Z,127.9
2022-09-15T12:45:01.307Z,136.7
2022-09-15T12:50:03.950Z,155.4
2022-09-15T12:54:59.659Z,125.9
2022-09-15T12:59:59.586Z,78.5
2022-09-15T13:04:59.554Z,53
2022-09-15T13:09:59.757Z,57.7
2022-09-15T13:15:01.135Z,76.9
2022-09-15T13:19:59.536Z,103.5
2022-09-15T13:25:01.629Z,123
2022-09-15T13:30:02.523Z,247
2022-09-15T13:35:06.454Z,177
2022-09-15T13:40:05.042Z,174.1
2022-09-15T13:44:59.709Z,183.9
2022-09-15T13:50:08.679Z,198.5
2022-09-15T13:54:59.606Z,187.7
2022-09-15T14:00:00.496Z,175.1
2022-09-15T14:04:59.485Z,176.2
2022-09-15T14:09:59.587Z,327.1
2022-09-15T14:15:05.972Z,237.9
2022-09-15T14:19:59.955Z,333.8
2022-09-15T14:24:59.415Z,205.2
2022-09-15T14:30:00.948Z,155.1
2022-09-15T14:34:59.404Z,162.4
2022-09-15T14:39:59.926Z,141.3
2022-09-15T14:49:59.552Z,81.6
2022-09-15T14:55:00.742Z,78.9
2022-09-15T14:59:59.541Z,96.6
2022-09-15T15:04:59.349Z,105
2022-09-15T15:09:59.540Z,103.2
2022-09-15T15:14:59.731Z,112.9
2022-09-15T15:19:59.582Z,127.2
2022-09-15T15:24:59.936Z,182.9
2022-09-15T15:29:59.321Z,224.4
2022-09-15T15:34:59.316Z,166.6
2022-09-15T15:39:59.613Z,154.4
2022-09-15T15:44:59.620Z,170.8
2022-09-15T15:50:13.373Z,155.2
2022-09-15T15:54:59.636Z,207.6
2022-09-15T15:59:59.948Z,152.5
2022-09-15T16:04:59.252Z,126.9
2022-09-15T16:09:59.922Z,107
2022-09-15T16:14:59.651Z,96.5
2022-09-15T16:19:59.498Z,98.5
2022-09-15T16:24:59.474Z,78.3
2022-09-15T16:29:59.345Z,73.4
2022-09-15T16:34:59.386Z,69.5
2022-09-15T16:39:59.575Z,69.2
2022-09-15T16:44:59.484Z,63.4
2022-09-15T16:49:59.542Z,54.5
2022-09-15T16:54:59.366Z,43.3
2022-09-15T16:59:59.484Z,35.2
2022-09-15T17:04:59.526Z,31.3
2022-09-15T17:09:59.300Z,30.8
2022-09-15T17:14:59.351Z,30.5
2022-09-15T17:19:59.646Z,24.8
2022-09-15T17:24:59.281Z,16.8
2022-09-15T17:29:59.334Z,12.5
2022-09-15T17:34:59.419Z,9.1
2022-09-15T17:39:59.567Z,6.2
2022-09-15T17:44:59.417Z,3.8
2022-09-15T17:49:59.383Z,1.5
2022-09-15T17:54:59.421Z,0.5
2022-09-15T17:59:59.599Z,0.2
2022-09-15T18:04:59.558Z,0.1
2022-09-15T18:09:59.474Z,0
2022-09-15T18:14:59.446Z,0
2022-09-15T18:19:59.564Z,0
2022-09-15T18:24:59.541Z,0
2022-09-15T18:29:59.490Z,0
2022-09-15T18:34:59.182Z,0
2022-09-15T18:39:59.533Z,0
2022-09-15T19:30:06.814Z,0
2022-09-15T19:35:01.434Z,0
2022-09-15T19:40:01.725Z,0
2022-09-15T19:45:01.059Z,0
2022-09-15T19:50:01.039Z,0
2022-09-15T19:55:01.145Z,0
2022-09-15T20:00:01.193Z,0
2022-09-15T20:05:00.968Z,0
2022-09-15T20:10:01.002Z,0
2022-09-15T20:15:01.036Z,0
2022-09-15T20:20:01.405Z,0
2022-09-15T20:25:00.982Z,0
2022-09-15T20:30:01.111Z,0
2022-09-15T20:35:00.988Z,0
2022-09-15T20:40:01.102Z,0
2022-09-15T20:45:00.925Z,0
2022-09-15T20:50:00.760Z,0
2022-09-15T20:55:01.045Z,0
2022-09-15T21:00:01.275Z,0
2022-09-15T21:05:00.895Z,0
2022-09-15T21:10:01.287Z,0
2022-09-15T21:15:00.936Z,0
2022-09-15T21:20:00.963Z,0
2022-09-15T21:25:00.793Z,0
2022-09-15T21:30:00.822Z,0
2022-09-15T21:35:01.055Z,0
2022-09-15T21:40:00.828Z,0
2022-09-15T21:45:00.952Z,0
2022-09-15T21:50:00.823Z,0
2022-09-15T21:55:01.050Z,0
2022-09-15T22:00:01.484Z,0
2022-09-15T22:05:00.854Z,0
2022-09-15T22:10:01.345Z,0
2022-09-15T22:15:00.810Z,0
2022-09-15T22:20:00.859Z,0
2022-09-15T22:25:01.208Z,0
2022-09-15T22:30:01.245Z,0
2022-09-15T22:35:00.775Z,0
2022-09-15T22:40:01.106Z,0
2022-09-15T22:45:00.811Z,0
2022-09-15T22:50:00.818Z,0
2022-09-15T22:55:01.056Z,0
2022-09-15T23:00:00.908Z,0
2022-09-15T23:05:00.612Z,0
2022-09-15T23:10:00.750Z,0
2022-09-15T23:15:00.814Z,0
2022-09-15T23:20:00.878Z,0
2022-09-15T23:25:00.719Z,0
2022-09-15T23:30:00.920Z,0
2022-09-15T23:35:00.676Z,0
2022-09-15T23:40:00.745Z,0
2022-09-15T23:45:00.622Z,0
2022-09-15T23:50:00.729Z,0
2022-09-15T23:55:00.963Z,0
